Elizabeth R — WDG5460 — position and weather

sailwx.info

Track history (hours):
 
Tides and Currents Weather Stations Pressure Air Temp Water Temp Dewpoint Dewpoint Depression Visibility Wind Speed Wind Dir Waves Ship Positions

Elizabeth R

Owner: Kirby Inland Marine LP, Houston, TX. More information available from US FCC via Universal Licensing System and Coast Guard Vessel Documentation Center.

Last reported at 2017-Nov-24 00:00 UTC. Time now 2017-Nov-24 00:21 UTC.
Position N 30°04' W 093°21'.

Length 120 m; draft 2.7 m.

Type: . MMSI: 367546910.

Date/timePositionNaut miles runAvg speedWind from/ knotsBaromVisibWave heightAir tempDewpointWater temp
2017-Nov-24 00:00N 30°04' W 093°21'0 0.0
2017-Nov-23 23:30N 30°04' W 093°21'0 0.0
2017-Nov-23 23:00N 30°04' W 093°21'0 0.0
2017-Nov-23 22:30N 30°04' W 093°21'0 0.0
2017-Nov-23 22:00N 30°04' W 093°21'0 0.0
2017-Nov-23 21:30N 30°04' W 093°21'0 0.0
2017-Nov-23 21:00N 30°04' W 093°21'0 0.9
2017-Nov-23 20:30N 30°04' W 093°22'0 0.0
2017-Nov-23 20:00N 30°04' W 093°22'1 1.1
2017-Nov-23 19:30N 30°04' W 093°21'1 1.8
2017-Nov-23 19:00N 30°04' W 093°21'1 1.7
2017-Nov-23 18:30N 30°05' W 093°20'1 2.4
2017-Nov-23 18:00N 30°06' W 093°20'2 3.5
2017-Nov-23 17:31N 30°08' W 093°20'0 1.0
2017-Nov-23 17:00N 30°08' W 093°19'0 0.1
2017-Nov-23 16:28N 30°08' W 093°19'0 0.0
2017-Nov-23 15:58N 30°08' W 093°19'0 0.0
2017-Nov-23 15:28N 30°08' W 093°19'0 0.0
2017-Nov-23 14:58N 30°08' W 093°19'0 0.0
2017-Nov-23 14:25N 30°08' W 093°19'0 0.0
2017-Nov-23 13:58N 30°08' W 093°19'0 0.0
2017-Nov-23 13:28N 30°08' W 093°19'0 0.0
2017-Nov-23 12:58N 30°08' W 093°19'0 0.0
2017-Nov-23 12:28N 30°08' W 093°19'0 0.0
2017-Nov-23 11:58N 30°08' W 093°19'0 0.0
2017-Nov-23 11:28N 30°08' W 093°19'0 0.0
2017-Nov-23 10:58N 30°08' W 093°19'0 0.0
2017-Nov-23 10:28N 30°08' W 093°19'0 0.0
2017-Nov-23 09:58N 30°08' W 093°19'0 0.0
2017-Nov-23 09:28N 30°08' W 093°19'0 0.0
2017-Nov-23 08:58N 30°08' W 093°19'0 0.0
2017-Nov-23 08:28N 30°08' W 093°19'0 0.0
2017-Nov-23 07:58N 30°08' W 093°19'0 0.0
2017-Nov-23 07:28N 30°08' W 093°19'0 0.0
2017-Nov-23 06:58N 30°08' W 093°19'0 0.0
2017-Nov-23 06:28N 30°08' W 093°19'0 0.0
2017-Nov-23 05:58N 30°08' W 093°19'0 0.0
2017-Nov-23 05:28N 30°08' W 093°19'0 0.0
2017-Nov-23 04:58N 30°08' W 093°19'0 0.0
2017-Nov-23 04:28N 30°08' W 093°19'0 0.0
2017-Nov-23 03:58N 30°08' W 093°19'0 0.0
2017-Nov-23 03:28N 30°08' W 093°19'0 0.0
2017-Nov-23 02:58N 30°08' W 093°19'0 0.0
2017-Nov-23 02:28N 30°08' W 093°19'0 0.0
2017-Nov-23 01:58N 30°08' W 093°19'0 0.0
2017-Nov-23 01:28N 30°08' W 093°19'0 0.0
2017-Nov-23 00:58N 30°08' W 093°19'0 0.0
2017-Nov-23 00:28N 30°08' W 093°19'0 0.0
2017-Nov-22 23:58N 30°08' W 093°19'0 0.0
2017-Nov-22 23:28N 30°08' W 093°19'0 0.0
2017-Nov-22 22:58N 30°08' W 093°19'0 0.0
2017-Nov-22 22:28N 30°08' W 093°19'0 0.0
2017-Nov-22 21:58N 30°08' W 093°19'0 0.0
2017-Nov-22 21:28N 30°08' W 093°19'0 0.0
2017-Nov-22 20:58N 30°08' W 093°19'0 0.0
2017-Nov-22 20:25N 30°08' W 093°19'0 0.0
2017-Nov-22 19:58N 30°08' W 093°19'0 0.0
2017-Nov-22 19:28N 30°08' W 093°19'  
2017-Nov-20 00:30N 29°44' W 095°03'0 0.0
2017-Nov-19 23:01N 29°44' W 095°03'0 0.0
2017-Nov-19 23:00N 29°44' W 095°03'0 0.0
2017-Nov-19 19:13N 29°44' W 095°03'0 0.0
2017-Nov-19 18:48N 29°44' W 095°03'0 0.0
2017-Nov-19 18:30N 29°44' W 095°03'0 0.0
2017-Nov-19 17:19N 29°44' W 095°03'0 0.0
2017-Nov-19 10:20N 29°44' W 095°03'0 0.1
2017-Nov-19 10:00N 29°44' W 095°03'2 3.3
2017-Nov-19 09:25N 29°46' W 095°04'1 1.2
2017-Nov-19 08:29N 29°45' W 095°06'0 0.8
2017-Nov-19 07:57N 29°46' W 095°05'0 0.0
2017-Nov-18 12:58N 29°46' W 095°06'0 0.1
2017-Nov-18 11:22N 29°45' W 095°06'3 3.9
2017-Nov-18 10:39N 29°44' W 095°08'3 0.2
2017-Nov-17 20:29N 29°46' W 095°06'0 0.0
2017-Nov-17 19:16N 29°46' W 095°06'2 3.9
2017-Nov-17 18:48N 29°47' W 095°04'1 0.2
2017-Nov-17 11:40N 29°46' W 095°05'1 1.8
2017-Nov-17 10:55N 29°47' W 095°04'1 1.3
2017-Nov-17 10:30N 29°47' W 095°05'0 0.0
2017-Nov-17 09:59N 29°47' W 095°05'0 0.0
2017-Nov-17 09:30N 29°47' W 095°05'2 3.1
2017-Nov-17 08:59N 29°45' W 095°05'3 4.1
2017-Nov-17 08:17N 29°44' W 095°08'1 4.3
2017-Nov-17 07:59N 29°45' W 095°10'3 4.0
2017-Nov-17 07:10N 29°43' W 095°13'1 0.1
2017-Nov-16 14:37N 29°43' W 095°14'0 0.2
2017-Nov-16 14:27N 29°43' W 095°14'1 1.5
2017-Nov-16 14:00N 29°44' W 095°14'3 6.3
2017-Nov-16 13:28N 29°45' W 095°10'5 6.0
2017-Nov-16 12:38N 29°46' W 095°05'0 0.0
2017-Nov-16 09:31N 29°46' W 095°05'0 7.5
2017-Nov-16 09:30N 29°46' W 095°05'0 0.6
2017-Nov-16 08:57N 29°46' W 095°05'0 0.3
2017-Nov-16 07:44N 29°46' W 095°05'2 4.9
2017-Nov-16 07:18N 29°44' W 095°03'0 0.0
2017-Nov-15 12:44N 29°44' W 095°03'0 0.1
2017-Nov-15 12:29N 29°44' W 095°03'0 0.6
2017-Nov-15 12:00N 29°44' W 095°03'0 0.0
2017-Nov-15 11:30N 29°44' W 095°03'0 0.0
2017-Nov-15 10:57N 29°44' W 095°03'0 0.0
2017-Nov-15 10:30N 29°44' W 095°03'0 0.0
2017-Nov-15 09:57N 29°44' W 095°03'0 0.0
2017-Nov-15 09:30N 29°44' W 095°03'0 0.4
2017-Nov-15 08:56N 29°44' W 095°03'2 3.8
2017-Nov-15 08:29N 29°43' W 095°01'2 4.4
2017-Nov-15 08:00N 29°41' W 094°59'1 1.7
2017-Nov-15 07:31N 29°41' W 095°00'1 2.3
2017-Nov-15 07:00N 29°41' W 094°59'3 5.5
2017-Nov-15 06:30N 29°38' W 094°58'3 5.7
2017-Nov-15 05:55N 29°35' W 094°56'2 5.9
2017-Nov-15 05:30N 29°33' W 094°55'74 4.0
2017-Nov-14 11:03N 30°04' W 093°37'1 4.6
2017-Nov-14 10:49N 30°04' W 093°36'2 4.5
2017-Nov-14 10:25N 30°04' W 093°34'18 2.0
2017-Nov-14 01:42N 30°01' W 093°14'1 4.0
2017-Nov-14 01:29N 30°00' W 093°14'1 2.7
2017-Nov-14 00:59N 29°59' W 093°13'2 3.3
2017-Nov-14 00:27N 29°58' W 093°11'  
Track history (hours):
 
Tides and Currents Weather Stations Pressure Air Temp Water Temp Dewpoint Dewpoint Depression Visibility Wind Speed Wind Dir Waves Ship Positions

Elizabeth R

Owner: Kirby Inland Marine LP, Houston, TX. More information available from US FCC via Universal Licensing System and Coast Guard Vessel Documentation Center.

Last reported at 2017-Nov-24 00:00 UTC. Time now 2017-Nov-24 00:21 UTC.
Position N 30°04' W 093°21'.

Length 120 m; draft 2.7 m.

Type: . MMSI: 367546910.

Date/timePositionNaut miles runAvg speedWind from/ knotsBaromVisibWave heightAir tempDewpointWater temp
2017-Nov-24 00:00N 30°04' W 093°21'0 0.0
2017-Nov-23 23:30N 30°04' W 093°21'0 0.0
2017-Nov-23 23:00N 30°04' W 093°21'0 0.0
2017-Nov-23 22:30N 30°04' W 093°21'0 0.0
2017-Nov-23 22:00N 30°04' W 093°21'0 0.0
2017-Nov-23 21:30N 30°04' W 093°21'0 0.0
2017-Nov-23 21:00N 30°04' W 093°21'0 0.9
2017-Nov-23 20:30N 30°04' W 093°22'0 0.0
2017-Nov-23 20:00N 30°04' W 093°22'1 1.1
2017-Nov-23 19:30N 30°04' W 093°21'1 1.8
2017-Nov-23 19:00N 30°04' W 093°21'1 1.7
2017-Nov-23 18:30N 30°05' W 093°20'1 2.4
2017-Nov-23 18:00N 30°06' W 093°20'2 3.5
2017-Nov-23 17:31N 30°08' W 093°20'0 1.0
2017-Nov-23 17:00N 30°08' W 093°19'0 0.1
2017-Nov-23 16:28N 30°08' W 093°19'0 0.0
2017-Nov-23 15:58N 30°08' W 093°19'0 0.0
2017-Nov-23 15:28N 30°08' W 093°19'0 0.0
2017-Nov-23 14:58N 30°08' W 093°19'0 0.0
2017-Nov-23 14:25N 30°08' W 093°19'0 0.0
2017-Nov-23 13:58N 30°08' W 093°19'0 0.0
2017-Nov-23 13:28N 30°08' W 093°19'0 0.0
2017-Nov-23 12:58N 30°08' W 093°19'0 0.0
2017-Nov-23 12:28N 30°08' W 093°19'0 0.0
2017-Nov-23 11:58N 30°08' W 093°19'0 0.0
2017-Nov-23 11:28N 30°08' W 093°19'0 0.0
2017-Nov-23 10:58N 30°08' W 093°19'0 0.0
2017-Nov-23 10:28N 30°08' W 093°19'0 0.0
2017-Nov-23 09:58N 30°08' W 093°19'0 0.0
2017-Nov-23 09:28N 30°08' W 093°19'0 0.0
2017-Nov-23 08:58N 30°08' W 093°19'0 0.0
2017-Nov-23 08:28N 30°08' W 093°19'0 0.0
2017-Nov-23 07:58N 30°08' W 093°19'0 0.0
2017-Nov-23 07:28N 30°08' W 093°19'0 0.0
2017-Nov-23 06:58N 30°08' W 093°19'0 0.0
2017-Nov-23 06:28N 30°08' W 093°19'0 0.0
2017-Nov-23 05:58N 30°08' W 093°19'0 0.0
2017-Nov-23 05:28N 30°08' W 093°19'0 0.0
2017-Nov-23 04:58N 30°08' W 093°19'0 0.0
2017-Nov-23 04:28N 30°08' W 093°19'0 0.0
2017-Nov-23 03:58N 30°08' W 093°19'0 0.0
2017-Nov-23 03:28N 30°08' W 093°19'0 0.0
2017-Nov-23 02:58N 30°08' W 093°19'0 0.0
2017-Nov-23 02:28N 30°08' W 093°19'0 0.0
2017-Nov-23 01:58N 30°08' W 093°19'0 0.0
2017-Nov-23 01:28N 30°08' W 093°19'0 0.0
2017-Nov-23 00:58N 30°08' W 093°19'0 0.0
2017-Nov-23 00:28N 30°08' W 093°19'0 0.0
2017-Nov-22 23:58N 30°08' W 093°19'0 0.0
2017-Nov-22 23:28N 30°08' W 093°19'0 0.0
2017-Nov-22 22:58N 30°08' W 093°19'0 0.0
2017-Nov-22 22:28N 30°08' W 093°19'0 0.0
2017-Nov-22 21:58N 30°08' W 093°19'0 0.0
2017-Nov-22 21:28N 30°08' W 093°19'0 0.0
2017-Nov-22 20:58N 30°08' W 093°19'0 0.0
2017-Nov-22 20:25N 30°08' W 093°19'0 0.0
2017-Nov-22 19:58N 30°08' W 093°19'0 0.0
2017-Nov-22 19:28N 30°08' W 093°19'  
2017-Nov-20 00:30N 29°44' W 095°03'0 0.0
2017-Nov-19 23:01N 29°44' W 095°03'0 0.0
2017-Nov-19 23:00N 29°44' W 095°03'0 0.0
2017-Nov-19 19:13N 29°44' W 095°03'0 0.0
2017-Nov-19 18:48N 29°44' W 095°03'0 0.0
2017-Nov-19 18:30N 29°44' W 095°03'0 0.0
2017-Nov-19 17:19N 29°44' W 095°03'0 0.0
2017-Nov-19 10:20N 29°44' W 095°03'0 0.1
2017-Nov-19 10:00N 29°44' W 095°03'2 3.3
2017-Nov-19 09:25N 29°46' W 095°04'1 1.2
2017-Nov-19 08:29N 29°45' W 095°06'0 0.8
2017-Nov-19 07:57N 29°46' W 095°05'0 0.0
2017-Nov-18 12:58N 29°46' W 095°06'0 0.1
2017-Nov-18 11:22N 29°45' W 095°06'3 3.9
2017-Nov-18 10:39N 29°44' W 095°08'3 0.2
2017-Nov-17 20:29N 29°46' W 095°06'0 0.0
2017-Nov-17 19:16N 29°46' W 095°06'2 3.9
2017-Nov-17 18:48N 29°47' W 095°04'1 0.2
2017-Nov-17 11:40N 29°46' W 095°05'1 1.8
2017-Nov-17 10:55N 29°47' W 095°04'1 1.3
2017-Nov-17 10:30N 29°47' W 095°05'0 0.0
2017-Nov-17 09:59N 29°47' W 095°05'0 0.0
2017-Nov-17 09:30N 29°47' W 095°05'2 3.1
2017-Nov-17 08:59N 29°45' W 095°05'3 4.1
2017-Nov-17 08:17N 29°44' W 095°08'1 4.3
2017-Nov-17 07:59N 29°45' W 095°10'3 4.0
2017-Nov-17 07:10N 29°43' W 095°13'1 0.1
2017-Nov-16 14:37N 29°43' W 095°14'0 0.2
2017-Nov-16 14:27N 29°43' W 095°14'1 1.5
2017-Nov-16 14:00N 29°44' W 095°14'3 6.3
2017-Nov-16 13:28N 29°45' W 095°10'5 6.0
2017-Nov-16 12:38N 29°46' W 095°05'0 0.0
2017-Nov-16 09:31N 29°46' W 095°05'0 7.5
2017-Nov-16 09:30N 29°46' W 095°05'0 0.6
2017-Nov-16 08:57N 29°46' W 095°05'0 0.3
2017-Nov-16 07:44N 29°46' W 095°05'2 4.9
2017-Nov-16 07:18N 29°44' W 095°03'0 0.0
2017-Nov-15 12:44N 29°44' W 095°03'0 0.1
2017-Nov-15 12:29N 29°44' W 095°03'0 0.6
2017-Nov-15 12:00N 29°44' W 095°03'0 0.0
2017-Nov-15 11:30N 29°44' W 095°03'0 0.0
2017-Nov-15 10:57N 29°44' W 095°03'0 0.0
2017-Nov-15 10:30N 29°44' W 095°03'0 0.0
2017-Nov-15 09:57N 29°44' W 095°03'0 0.0
2017-Nov-15 09:30N 29°44' W 095°03'0 0.4
2017-Nov-15 08:56N 29°44' W 095°03'2 3.8
2017-Nov-15 08:29N 29°43' W 095°01'2 4.4
2017-Nov-15 08:00N 29°41' W 094°59'1 1.7
2017-Nov-15 07:31N 29°41' W 095°00'1 2.3
2017-Nov-15 07:00N 29°41' W 094°59'3 5.5
2017-Nov-15 06:30N 29°38' W 094°58'3 5.7
2017-Nov-15 05:55N 29°35' W 094°56'2 5.9
2017-Nov-15 05:30N 29°33' W 094°55'74 4.0
2017-Nov-14 11:03N 30°04' W 093°37'1 4.6
2017-Nov-14 10:49N 30°04' W 093°36'2 4.5
2017-Nov-14 10:25N 30°04' W 093°34'18 2.0
2017-Nov-14 01:42N 30°01' W 093°14'1 4.0
2017-Nov-14 01:29N 30°00' W 093°14'1 2.7
2017-Nov-14 00:59N 29°59' W 093°13'2 3.3
2017-Nov-14 00:27N 29°58' W 093°11'  

Dump ship's entire track history